Toowoomba, Queensland

5:53 PM AEST on October 31, 2014 (GMT +1000)
Newtown, Toowoomba | Change Station
CLOSE
Current Station
Personal Weather Station
Location: Newtown, QUEENSLAND
Elevation: 2073 ft
Nearby Weather Stations

Elev 2073 ft 27.56 °S, 151.94 °E | Updated 41 seconds ago

Scattered Clouds
Scattered Clouds
81.2 °F
Feels Like 81 °F
N
4.4
Wind Variable Wind from NNE
Gusts 8.1 mph

Today
High -- | Low -- °F
--% Chance of Precip.
Yesterday
High -- | Low -- °F
Precip. -- in
5:02 AM 6:09 PM
First Quarter, 52% visible
Pressure 29.89 in
Visibility 6.2 miles
Clouds Scattered Clouds 2500 ft
Scattered Clouds 10500 ft
Heat Index 81 °F
Dew Point 55 °F
Humidity 40%
Rainfall 0.00 in
Snow Depth Not available.
UV 1 out of 12
Pollen Not available.
Air Quality Not available.
Flu Activity Not available.
METAR YBOK 310700Z AUTO 04017KT 9999 // SCT025 SCT105 25/17 Q1012

More Conditions Fewer Conditions

Pressure 29.89 in
Visibility 6.2 miles
Clouds Scattered Clouds 2500 ft
Scattered Clouds 10500 ft
Heat Index 81 °F
Dew Point 55 °F
Humidity 40%
Rainfall 0.00 in
Snow Depth Not available.
UV 1 out of 12
Pollen Not available.
Air Quality Not available.
Flu Activity Not available.
METAR YBOK 310700Z AUTO 04017KT 9999 // SCT025 SCT105 25/17 Q1012

More Conditions Fewer Conditions

10-Day Weather Forecast

Almanac

Astronomy

Oct. 31, 2014 Rise Set
Actual Time
Civil Twilight
Nautical Twilight
Astronomical Twilight
Moon
Length of Visible Light
Length of Day
Tomorrow will be .
, % of the Moon is Illuminated

Today's Extremes

Country Highs Country Lows

Community

WunderPhotos

Upload Photos

1,766,573 photos uploaded!

WunderBlogs® & News

Nearby

Air Quality

  Air Quality AQ Index Pollutant
Not available.

Snow Depth

Station Depth Elevation

Earthquake Activity

City Distance Mag. Time & Date
Minimum magnitude displayed is 2.5.

Coastal Water Temperatures

Place Temperature

Nearby Weather Stations